Latest Weather Observations for Richmond

IDQ60801

Issued at 9:32 am EST Tuesday 7 December 2021 (issued every 10 minutes, with the page automatically refreshed every 10 minutes)

About weather observations | Map of weather stations | Latest weather observations for QLD | Other Formats
Station Details ID: 030161 Name: RICHMOND AIRPORT Lat: -20.70 Lon: 143.11 Height: 206.3 m
Data from the previous 72 hours. | See also: Recent months at Richmond
Date/Time
EST
Temp
°C
App
Temp
°C
Dew
Point
°C
Rel
Hum
%
Delta-T
°C
Wind Press
QNH
hPa
Press
MSL
hPa
Rain since
9am
mm
Dir  Spd
km/h
Gust
km/h
Spd
kts
Gust
kts
07/09:30am 32.0 32.3 17.9 43 9.1 NNW 13 20 7 11 1011.7 1010.1 0.0
07/09:00am 30.2 31.9 18.6 49 7.5 NNW 7 13 4 7 1011.9 1010.3 0.0
07/08:30am 28.9 31.7 18.9 54 6.5 N 2 7 1 4 1011.7 1010.1 0.0
07/08:00am 27.4 29.0 19.2 61 5.3 NNE 9 15 5 8 1011.4 1009.8 0.0
07/07:30am 26.2 27.6 18.6 63 4.9 N 9 11 5 6 1011.3 1009.7 0.0
07/07:00am 25.9 27.7 18.3 63 4.9 WNW 6 11 3 6 1011.3 1009.7 0.0
07/06:38am 26.3 28.8 18.2 61 5.2 WNW 2 6 1 3 1011.1 1009.5 0.0
07/06:30am 26.0 28.0 18.7 64 4.7 WNW 6 7 3 4 1011.2 1009.6 0.0
07/06:19am 25.2 27.0 18.2 65 4.5 WNW 6 7 3 4 1011.0 1009.4 0.0
07/06:00am 24.5 26.1 18.2 68 4.0 WNW 7 11 4 6 1010.9 1009.3 0.0
07/05:30am 23.9 24.2 17.9 69 3.8 W 13 22 7 12 1010.3 1008.7 0.0
07/05:00am 23.6 24.5 17.6 69 3.8 SSE 9 11 5 6 1009.7 1008.1 0.0
07/04:30am 23.4 24.0 17.6 70 3.6 SSE 11 13 6 7 1009.6 1008.0 0.0
07/04:00am 24.3 25.6 17.5 66 4.3 ESE 7 11 4 6 1009.1 1007.6 0.0
07/03:30am 24.5 23.9 17.5 65 4.4 SE 17 20 9 11 1008.7 1007.1 0.0
07/03:00am 24.9 25.4 17.4 63 4.7 ESE 11 13 6 7 1008.7 1007.1 0.0
07/02:30am 25.4 26.0 17.6 62 4.9 ESE 11 13 6 7 1008.8 1007.2 0.0
07/02:00am 25.5 25.9 18.2 64 4.7 SE 13 17 7 9 1009.2 1007.7 0.0
07/01:30am 25.8 26.0 18.5 64 4.7 SSE 15 17 8 9 1009.5 1007.9 0.0
07/01:00am 25.9 25.6 18.3 63 4.9 SE 17 20 9 11 1009.6 1008.0 0.0
07/12:30am 25.4 26.5 18.1 64 4.6 SE 9 13 5 7 1009.8 1008.2 0.0
07/12:00am 25.5 25.8 17.9 63 4.8 SSE 13 17 7 9 1009.7 1008.1 0.0
 
Date/Time
EST
Temp
°C
App
Temp
°C
Dew
Point
°C
Rel
Hum
%
Delta-T
°C
Wind Press
QNH
hPa
Press
MSL
hPa
Rain since
9am
mm
Dir  Spd
km/h
Gust
km/h
Spd
kts
Gust
kts
06/11:30pm 25.8 25.6 17.7 61 5.1 S 15 17 8 9 1009.9 1008.3 0.0
06/11:00pm 26.4 26.4 17.2 57 5.8 SSE 13 15 7 8 1010.0 1008.4 0.0
06/10:30pm 26.8 26.5 16.4 53 6.5 SSE 13 15 7 8 1010.1 1008.5 0.0
06/10:00pm 27.6 27.4 16.6 51 6.9 SSE 13 15 7 8 1009.7 1008.1 0.0
06/09:30pm 28.0 27.6 16.3 49 7.3 SSE 13 19 7 10 1009.2 1007.7 0.0
06/09:00pm 28.4 27.3 15.3 45 8.1 SSE 15 17 8 9 1008.8 1007.2 0.0
06/08:30pm 28.9 27.2 15.8 45 8.1 SSE 19 22 10 12 1008.5 1006.9 0.0
06/08:00pm 29.0 28.2 16.2 46 8.0 SSE 15 20 8 11 1008.5 1006.9 0.0
06/07:30pm 30.0 28.4 16.1 43 8.7 SE 19 22 10 12 1008.3 1006.7 0.0
06/07:24pm 30.2 28.9 15.9 42 8.9 SE 17 20 9 11 1008.3 1006.7 0.0
06/07:05pm 30.5 31.2 16.1 41 9.0 SE 7 17 4 9 1008.3 1006.7 0.0
06/07:00pm 30.5 31.2 16.1 41 9.1 SE 7 9 4 5 1008.2 1006.6 0.0
06/06:30pm 31.4 30.9 15.8 39 9.8 SE 13 15 7 8 1008.1 1006.5 0.0
06/06:00pm 31.9 32.5 15.4 37 10.3 NNE 6 11 3 6 1007.8 1006.2 0.0
06/05:30pm 32.1 33.0 16.0 38 10.1 E 6 11 3 6 1007.5 1005.9 0.0
06/05:00pm 32.0 32.8 15.9 38 10.2 ESE 6 11 3 6 1007.5 1005.9 0.0
06/04:30pm 32.0 30.7 15.9 38 10.1 E 17 22 9 12 1007.1 1005.5 0.0
06/04:00pm 32.0 30.3 16.3 39 10.0 ESE 20 24 11 13 1007.1 1005.5 0.0
06/03:30pm 31.9 31.4 15.8 38 10.1 E 13 19 7 10 1007.7 1006.1 0.0
06/03:00pm 32.1 32.4 16.0 38 10.2 NNE 9 13 5 7 1008.5 1006.9 0.0
06/02:30pm 31.5 32.4 16.6 40 9.5 E 7 17 4 9 1008.9 1007.4 0.0
06/02:00pm 31.3 31.6 16.1 40 9.6 E 9 17 5 9 1009.3 1007.8 0.0
06/01:30pm 31.3 32.2 17.6 44 8.8 E 9 15 5 8 1009.9 1008.3 0.0
06/01:00pm 30.2 30.1 16.9 44 8.4 ESE 13 19 7 10 1010.3 1008.7 0.0
06/12:30pm 30.0 30.0 17.1 46 8.2 ESE 13 20 7 11 1010.8 1009.2 0.0
06/12:00pm 30.1 30.0 17.9 48 7.9 SE 15 22 8 12 1011.3 1009.7 0.0
06/11:30am 28.6 28.9 17.8 52 6.9 E 13 20 7 11 1012.1 1010.5 0.0
06/11:00am 27.5 27.5 18.2 57 6.0 ESE 15 19 8 10 1012.4 1010.8 0.0
06/10:30am 26.2 25.9 18.3 61 5.1 ESE 17 22 9 12 1012.6 1011.0 0.0
06/10:00am 25.4 25.1 18.3 64 4.5 SSE 17 22 9 12 1012.9 1011.3 0.0
06/09:30am 24.8 24.3 17.8 65 4.4 SE 17 22 9 12 1013.1 1011.5 0.0
06/09:00am 24.7 23.0 18.2 67 4.1 SSE 24 30 13 16 1013.0 1011.4 0.0
06/08:30am 23.9 21.0 17.9 69 3.8 SSE 30 39 16 21 1013.0 1011.4 0.0
06/08:00am 22.9 19.9 17.8 73 3.2 SSE 30 43 16 23 1012.5 1010.9 0.0
06/07:30am 22.6 19.2 17.7 74 3.1 SSE 32 39 17 21 1011.9 1010.3 0.0
06/07:00am 22.1 18.8 17.9 77 2.6 SSE 32 43 17 23 1011.8 1010.2 0.0
06/06:30am 21.9 18.3 17.7 77 2.6 S 33 41 18 22 1011.5 1009.9 0.0
06/06:00am 21.5 18.0 17.9 80 2.3 S 33 44 18 24 1011.2 1009.6 0.0
06/05:30am 22.0 18.7 18.4 80 2.3 SSW 33 43 18 23 1011.2 1009.6 0.0
06/05:00am 22.2 18.2 18.4 79 2.4 SSW 37 46 20 25 1010.6 1009.0 0.0
06/04:30am 25.1 23.2 17.6 63 4.7 SSW 24 32 13 17 1010.1 1008.5 0.0
06/04:00am 25.4 24.7 17.3 61 5.1 WSW 17 24 9 13 1009.8 1008.2 0.0
06/03:30am 25.7 25.3 17.1 59 5.4 W 15 20 8 11 1009.0 1007.5 0.0
06/03:00am 25.6 24.4 17.0 59 5.4 SE 19 26 10 14 1007.8 1006.2 0.0
06/02:30am 25.9 22.9 16.7 57 5.7 SE 28 41 15 22 1007.4 1005.8 0.0
06/02:00am 26.8 23.8 15.8 51 6.8 SSE 26 32 14 17 1007.6 1006.0 0.0
06/01:30am 26.8 22.9 16.4 53 6.5 SE 32 41 17 22 1007.8 1006.2 0.0
06/01:00am 27.3 22.9 16.6 52 6.7 SSE 35 50 19 27 1008.2 1006.6 0.0
06/12:30am 28.1 20.6 16.1 48 7.5 SSE 50 65 27 35 1008.2 1006.6 0.0
06/12:20am 30.2 26.5 15.1 40 9.3 SSE 28 50 15 27 1008.3 1006.7 0.0
06/12:00am 30.0 24.4 14.5 38 9.5 SE 37 48 20 26 1007.7 1006.1 0.0
 
Date/Time
EST
Temp
°C
App
Temp
°C
Dew
Point
°C
Rel
Hum
%
Delta-T
°C
Wind Press
QNH
hPa
Press
MSL
hPa
Rain since
9am
mm
Dir  Spd
km/h
Gust
km/h
Spd
kts
Gust
kts
05/11:57pm 30.0 24.4 14.5 38 9.5 SSE 37 48 20 26 1007.6 1006.0 0.0
05/11:40pm 30.4 26.5 14.5 38 9.7 S 28 41 15 22 1007.7 1006.1 0.0
05/11:30pm 30.5 28.3 13.3 35 10.4 SSE 17 20 9 11 1007.7 1006.1 0.0
05/11:00pm 31.4 30.3 13.2 33 11.0 ESE 11 13 6 7 1007.4 1005.8 0.0
05/10:30pm 31.6 30.0 12.9 32 11.2 E 13 13 7 7 1007.3 1005.7 0.0
05/10:00pm 32.3 31.4 12.5 30 11.9 ENE 9 13 5 7 1007.0 1005.4 0.0
05/09:30pm 32.7 31.2 11.8 28 12.4 E 11 15 6 8 1007.0 1005.4 0.0
05/09:00pm 32.6 29.9 11.7 28 12.4 ESE 17 19 9 10 1006.6 1005.0 0.0
05/08:30pm 33.1 30.8 11.6 27 12.7 ESE 15 17 8 9 1006.0 1004.4 0.0
05/08:00pm 33.8 31.3 11.0 25 13.5 ESE 15 17 8 9 1005.7 1004.1 0.0
05/07:30pm 35.0 32.0 10.8 23 14.3 ESE 17 20 9 11 1005.6 1004.0 0.0
05/07:00pm 36.3 32.7 11.9 23 14.8 ESE 22 28 12 15 1005.2 1003.6 0.0
05/06:30pm 37.0 33.2 11.1 21 15.5 ESE 22 30 12 16 1004.8 1003.2 0.0
05/06:00pm 38.0 33.4 11.1 20 16.2 ESE 26 33 14 18 1004.6 1003.0 0.0
05/05:30pm 38.1 34.5 10.5 19 16.4 E 20 30 11 16 1004.4 1002.7 0.0
05/05:00pm 38.6 34.7 10.9 19 16.7 ESE 22 37 12 20 1004.4 1002.7 0.0
05/04:30pm 39.2 35.2 10.5 18 17.1 ESE 22 33 12 18 1004.6 1003.0 0.0
05/04:00pm 39.0 35.4 12.0 20 16.5 SE 22 32 12 17 1004.8 1003.2 0.0
05/03:30pm 38.9 35.5 11.1 19 16.7 SE 20 32 11 17 1005.2 1003.6 0.0
05/03:00pm 38.2 36.3 10.5 19 16.5 ENE 11 17 6 9 1005.6 1004.0 0.0
05/02:30pm 39.4 36.6 11.5 19 16.9 E 17 30 9 16 1005.9 1004.3 0.0
05/02:00pm 38.2 35.8 11.3 20 16.2 ENE 15 32 8 17 1006.3 1004.7 0.0
05/01:30pm 39.0 37.5 12.0 20 16.5 ENE 11 19 6 10 1006.9 1005.3 0.0
05/01:00pm 38.5 35.0 12.3 21 16.1 ESE 22 33 12 18 1007.3 1005.7 0.0
05/12:30pm 38.3 35.9 12.8 22 15.7 E 17 28 9 15 1007.7 1006.1 0.0
05/12:00pm 36.7 34.7 11.5 22 15.2 E 13 24 7 13 1008.3 1006.7 0.0
05/11:30am 37.1 33.9 11.8 22 15.3 E 20 41 11 22 1008.7 1007.1 0.0
05/11:00am 36.6 33.9 12.8 24 14.6 E 19 30 10 16 1009.3 1007.8 0.0
05/10:30am 35.9 34.1 13.4 26 13.8 NE 15 28 8 15 1009.8 1008.2 0.0
05/10:00am 35.6 34.7 13.7 27 13.5 ENE 11 17 6 9 1010.1 1008.5 0.0
05/09:30am 34.6 34.1 15.0 31 12.3 NE 11 20 6 11 1010.4 1008.8 0.0
05/09:05am 33.5 32.7 15.0 32 11.5 NNE 13 17 7 9 1010.6 1009.0 0.0
05/09:00am 33.5 32.5 14.5 31 11.8 NNE 13 17 7 9 1010.6 1009.0 0.0
05/08:49am 33.4 32.1 14.9 32 11.5 NNE 15 19 8 10 1010.6 1009.0 0.0
05/08:30am 32.7 32.5 15.7 36 10.7 N 11 17 6 9 1010.7 1009.1 0.0
05/08:00am 31.2 31.0 15.6 39 9.8 NNE 11 17 6 9 1010.4 1008.8 0.0
05/07:30am 29.5 29.6 15.6 43 8.6 NE 9 13 5 7 1010.3 1008.7 0.0
05/07:00am 28.1 28.5 15.4 46 7.8 ENE 7 11 4 6 1009.9 1008.3 0.0
05/06:30am 25.6 26.1 15.0 52 6.4 NE 6 9 3 5 1009.5 1007.9 0.0
05/06:00am 25.1 24.8 14.3 51 6.5 NE 9 11 5 6 1009.0 1007.5 0.0
05/05:30am 25.1 25.0 13.9 49 6.7 ENE 7 9 4 5 1008.8 1007.2 0.0
05/05:00am 25.2 25.1 14.0 49 6.7 NE 7 9 4 5 1008.4 1006.8 0.0
05/04:30am 24.9 24.0 13.8 50 6.6 NE 11 13 6 7 1008.0 1006.4 0.0
05/04:00am 25.5 24.5 13.4 47 7.2 NE 11 13 6 7 1008.1 1006.5 0.0
05/03:30am 26.1 25.3 12.9 44 7.8 ENE 9 13 5 7 1008.1 1006.5 0.0
05/03:00am 26.2 25.1 13.0 44 7.8 ENE 11 13 6 7 1008.1 1006.5 0.0
05/02:30am 25.7 25.4 13.2 46 7.4 E 7 11 4 6 1007.9 1006.3 0.0
05/02:00am 27.6 26.6 12.4 39 8.9 E 9 11 5 6 1007.9 1006.3 0.0
05/01:30am 28.0 26.9 12.0 37 9.3 ENE 9 13 5 7 1008.0 1006.4 0.0
05/01:00am 28.8 27.5 11.4 34 10.1 ENE 9 13 5 7 1008.2 1006.6 0.0
05/12:30am 29.4 27.8 11.5 33 10.4 ENE 11 15 6 8 1008.4 1006.8 0.0
05/12:00am 30.0 27.5 11.0 31 11.0 ENE 15 17 8 9 1008.6 1007.0 0.0
 
Date/Time
EST
Temp
°C
App
Temp
°C
Dew
Point
°C
Rel
Hum
%
Delta-T
°C
Wind Press
QNH
hPa
Press
MSL
hPa
Rain since
9am
mm
Dir  Spd
km/h
Gust
km/h
Spd
kts
Gust
kts
04/11:30pm 30.2 27.4 11.2 31 11.1 E 17 20 9 11 1008.8 1007.2 0.0
04/11:00pm 29.9 27.3 11.9 33 10.6 E 17 20 9 11 1009.1 1007.6 0.0
04/10:30pm 29.7 27.5 12.2 34 10.3 E 15 17 8 9 1009.1 1007.6 0.0
04/10:00pm 30.1 28.3 12.1 33 10.6 E 13 15 7 8 1009.0 1007.5 0.0
04/09:30pm 30.7 28.4 11.6 31 11.2 E 15 17 8 9 1008.8 1007.2 0.0
04/09:00pm 30.8 28.5 11.7 31 11.2 ESE 15 17 8 9 1008.7 1007.1 0.0
04/08:30pm 31.5 29.4 11.3 29 11.8 ESE 13 15 7 8 1008.4 1006.8 0.0
04/08:00pm 32.5 30.4 11.1 27 12.6 ESE 13 17 7 9 1008.2 1006.6 0.0
04/07:30pm 33.9 31.0 11.1 25 13.5 ESE 17 20 9 11 1008.1 1006.5 0.0
04/07:00pm 35.0 31.5 10.8 23 14.3 ESE 20 26 11 14 1007.8 1006.2 0.0
04/06:30pm 36.0 31.2 10.2 21 15.2 ESE 26 35 14 19 1007.4 1005.8 0.0
04/06:00pm 36.9 31.1 9.5 19 16.0 ESE 30 39 16 21 1006.9 1005.3 0.0
04/05:30pm 37.5 31.9 10.0 19 16.2 ESE 30 43 16 23 1006.8 1005.2 0.0
04/05:00pm 37.8 31.6 10.2 19 16.4 ESE 33 46 18 25 1006.8 1005.2 0.0
04/04:30pm 38.1 32.7 9.6 18 16.7 E 28 39 15 21 1006.6 1005.0 0.0
04/04:12pm 38.8 32.8 8.5 16 17.6 SE 30 48 16 26 1006.6 1005.0 0.0
04/04:00pm 38.4 32.7 9.9 18 16.9 ESE 30 44 16 24 1006.8 1005.2 0.0
04/03:30pm 38.2 31.7 8.9 17 17.0 ESE 33 46 18 25 1007.0 1005.4 0.0
04/03:23pm 38.8 33.0 9.4 17 17.3 ESE 30 48 16 26 1007.0 1005.4 0.0
04/03:00pm 38.8 33.2 10.2 18 17.0 ESE 30 41 16 22 1007.1 1005.5 0.0
04/02:30pm 38.6 32.6 10.0 18 16.9 E 32 50 17 27 1007.7 1006.1 0.0
04/02:00pm 38.4 32.6 10.7 19 16.6 E 32 50 17 27 1008.3 1006.7 0.0
04/01:37pm 38.5 33.7 11.5 20 16.3 E 28 46 15 25 1008.7 1007.1 0.0
04/01:30pm 38.1 33.9 11.2 20 16.2 E 24 33 13 18 1009.0 1007.5 0.0
04/01:05pm 38.3 32.7 11.4 20 16.2 ESE 32 50 17 27 1009.7 1008.1 0.0
04/01:00pm 38.8 32.9 11.0 19 16.7 ESE 33 50 18 27 1009.7 1008.1 0.0
04/12:58pm 38.0 32.3 11.1 20 16.1 ESE 32 50 17 27 1009.6 1008.0 0.0
04/12:30pm 37.2 32.3 12.6 23 15.0 E 30 43 16 23 1010.2 1008.6 0.0
04/12:07pm 37.0 32.1 12.4 23 15.0 ESE 30 46 16 25 1010.6 1009.0 0.0
04/12:00pm 37.7 32.8 14.3 25 14.7 SE 33 46 18 25 1010.7 1009.1 0.0
04/11:30am 36.9 32.0 13.6 24 14.4 ESE 32 44 17 24 1011.1 1009.5 0.0
04/11:00am 35.8 32.7 14.4 27 13.4 ESE 24 39 13 21 1011.8 1010.2 0.0
04/10:34am 36.1 32.3 14.7 28 13.4 ESE 28 46 15 25 1012.0 1010.4 0.0
04/10:30am 36.1 33.1 15.8 30 12.9 ESE 26 37 14 20 1012.1 1010.5 0.0
04/10:00am 34.7 33.9 16.1 33 11.8 E 15 24 8 13 1012.4 1010.8 0.0

Other formats

Comma delimited format used in spreadsheet applications
http://www.bom.gov.au/fwo/IDQ60801/IDQ60801.94341.axf

JavaScript Object Notation format (JSON) in row-major order
http://www.bom.gov.au/fwo/IDQ60801/IDQ60801.94341.json

Data quality

Most of these data are generated automatically and are frequently updated. Quality checks on data are not normally performed. It is possible for incorrect values to appear. Refer to information at About Latest Weather Observations and please check the disclaimer before using these data.